Time;durP1;ratioP1;P1;durP2;ratioP2;P2;SDS_P1;SDS_P2;PMS_P1;PMS_P2;Temp;Humidity;BMP_temperature;BMP_pressure;BME280_temperature;BME280_humidity;BME280_pressure;Samples;Min_cycle;Max_cycle;Signal;HPM_P1;HPM_P2
2023/02/03 00:01:02;;;;;;;27.50;11.10;;;;;;;0.45;83.84;100604.09;130599;1258;107531;-74
2023/02/03 00:04:11;;;;;;;9.30;4.30;;;;;;;0.50;83.21;100608.36;130744;1258;106995;-74
2023/02/03 00:07:16;;;;;;;12.80;5.40;;;;;;;0.47;83.08;100605.74;130714;1255;107562;-73
2023/02/03 00:10:22;;;;;;;14.60;6.80;;;;;;;0.43;83.19;100608.39;130647;1257;107531;-72
2023/02/03 00:13:28;;;;;;;10.70;4.60;;;;;;;0.42;83.33;100613.00;130635;1262;107546;-74
2023/02/03 00:16:34;;;;;;;13.20;5.80;;;;;;;0.41;83.00;100611.83;130632;1254;107499;-72
2023/02/03 00:19:39;;;;;;;19.90;8.20;;;;;;;0.42;83.02;100610.17;130755;1258;107524;-72
2023/02/03 00:22:45;;;;;;;12.40;5.80;;;;;;;0.46;83.09;100614.02;130695;1254;106259;-75
2023/02/03 00:25:50;;;;;;;16.60;6.40;;;;;;;0.47;82.80;100618.66;130777;1259;107478;-72
2023/02/03 00:28:59;;;;;;;19.20;8.70;;;;;;;0.48;83.02;100623.88;130758;1257;107533;-74
2023/02/03 00:32:04;;;;;;;9.10;4.50;;;;;;;0.49;83.02;100627.67;130753;1255;107498;-74
2023/02/03 00:35:11;;;;;;;9.70;4.00;;;;;;;0.45;82.67;100626.85;130719;1257;107530;-74
2023/02/03 00:38:16;;;;;;;14.80;6.30;;;;;;;0.38;82.80;100622.46;130728;1257;107564;-75
2023/02/03 00:41:23;;;;;;;10.90;5.40;;;;;;;0.35;82.53;100620.19;130599;1254;105507;-74
2023/02/03 00:44:30;;;;;;;13.00;4.70;;;;;;;0.33;82.23;100622.73;130689;1258;107404;-74
2023/02/03 00:47:36;;;;;;;8.80;4.10;;;;;;;0.36;82.24;100615.04;130700;1257;107515;-75
2023/02/03 00:50:41;;;;;;;11.70;5.70;;;;;;;0.39;81.81;100618.18;130685;1257;107542;-75
2023/02/03 00:53:47;;;;;;;7.60;3.40;;;;;;;0.40;81.76;100617.82;130480;1259;107601;-75
2023/02/03 00:56:53;;;;;;;8.30;3.90;;;;;;;0.37;81.12;100612.88;130575;1254;107553;-74
2023/02/03 00:59:58;;;;;;;12.10;4.80;;;;;;;0.35;81.44;100617.55;130598;1253;107544;-75
2023/02/03 01:03:04;;;;;;;16.10;6.40;;;;;;;0.32;80.90;100623.83;130655;1267;107239;-74
2023/02/03 01:06:15;;;;;;;11.10;4.20;;;;;;;0.29;81.88;100622.23;130630;1257;107442;-74
2023/02/03 01:09:21;;;;;;;16.00;7.10;;;;;;;0.29;81.98;100625.55;130489;1257;107528;-74
2023/02/03 01:12:28;;;;;;;8.80;4.10;;;;;;;0.29;81.50;100622.06;130489;1257;107261;-74
2023/02/03 01:15:34;;;;;;;8.90;3.10;;;;;;;0.28;81.35;100624.55;130519;1259;107439;-75
2023/02/03 01:18:40;;;;;;;8.70;3.70;;;;;;;0.31;81.44;100621.22;130542;1256;107519;-75
2023/02/03 01:21:46;;;;;;;10.00;4.30;;;;;;;0.37;81.58;100622.85;130732;1257;108020;-75
2023/02/03 01:24:51;;;;;;;15.00;5.40;;;;;;;0.39;81.38;100623.27;130624;1258;107542;-74
2023/02/03 01:27:57;;;;;;;9.90;3.60;;;;;;;0.40;81.66;100622.71;130592;1258;107578;-74
2023/02/03 01:31:13;;;;;;;13.40;6.00;;;;;;;0.41;81.22;100619.54;130553;1257;107510;-74
2023/02/03 01:34:18;;;;;;;19.30;6.40;;;;;;;0.38;81.71;100614.95;130601;1258;107494;-74
2023/02/03 01:37:24;;;;;;;10.40;4.10;;;;;;;0.37;81.65;100607.61;130664;1265;107520;-74
2023/02/03 01:40:29;;;;;;;10.60;4.40;;;;;;;0.37;81.77;100605.02;130476;1254;107496;-74
2023/02/03 01:43:37;;;;;;;11.70;4.50;;;;;;;0.35;81.84;100600.18;130518;1257;108545;-74
2023/02/03 01:46:49;;;;;;;14.40;4.60;;;;;;;0.37;81.86;100600.80;130504;1257;107530;-74
2023/02/03 01:50:00;;;;;;;10.90;4.00;;;;;;;0.42;81.88;100598.83;130507;1255;107490;-75
2023/02/03 01:53:10;;;;;;;10.90;4.50;;;;;;;0.44;81.56;100594.36;130658;1257;107560;-72
2023/02/03 01:56:17;;;;;;;13.60;4.90;;;;;;;0.37;81.42;100592.21;130767;1257;107431;-74
2023/02/03 01:59:24;;;;;;;12.80;4.60;;;;;;;0.35;81.88;100597.23;130703;1259;107439;-75
2023/02/03 02:02:30;;;;;;;14.80;6.50;;;;;;;0.35;81.78;100598.84;130582;1258;108678;-73
2023/02/03 02:05:41;;;;;;;13.70;4.70;;;;;;;0.30;81.86;100594.52;130532;1258;107196;-75
2023/02/03 02:08:51;;;;;;;9.90;4.20;;;;;;;0.24;81.88;100589.59;130512;1259;107433;-74
2023/02/03 02:11:56;;;;;;;12.90;5.70;;;;;;;0.14;81.75;100588.89;130540;1256;108108;-74
2023/02/03 02:15:03;;;;;;;12.20;6.20;;;;;;;0.04;81.90;100586.95;130582;1271;107376;-74
2023/02/03 02:18:23;;;;;;;20.70;6.60;;;;;;;-0.03;82.00;100578.19;130516;1259;107936;-74
2023/02/03 02:22:00;;;;;;;36.90;14.40;;;;;;;-0.07;82.02;100573.15;130603;1258;107494;-75
2023/02/03 02:25:25;;;;;;;10.70;5.20;;;;;;;-0.09;82.11;100567.28;130668;1256;107538;-75
2023/02/03 02:29:11;;;;;;;9.20;4.40;;;;;;;-0.05;81.66;100559.58;130758;1254;107561;-73
2023/02/03 02:32:34;;;;;;;11.90;5.00;;;;;;;-0.01;81.71;100553.75;130781;1259;107545;-73
2023/02/03 02:35:51;;;;;;;19.00;6.50;;;;;;;0.03;81.82;100545.20;130533;1259;106508;-74
2023/02/03 02:39:08;;;;;;;9.10;4.20;;;;;;;0.04;81.71;100543.91;130565;1259;106690;-74
2023/02/03 02:42:21;;;;;;;13.30;5.70;;;;;;;0.03;81.55;100545.00;130581;1257;107488;-74
2023/02/03 02:45:30;;;;;;;11.50;4.40;;;;;;;-0.02;81.63;100542.30;130559;1257;107435;-76
2023/02/03 02:48:40;;;;;;;9.70;3.80;;;;;;;-0.06;81.73;100545.13;130739;1258;108009;-76
2023/02/03 02:51:47;;;;;;;7.30;3.80;;;;;;;-0.07;81.73;100547.61;130724;1257;107609;-74
2023/02/03 02:54:58;;;;;;;9.60;3.60;;;;;;;-0.07;81.87;100555.15;130698;1257;107514;-73
2023/02/03 02:58:10;;;;;;;7.40;3.30;;;;;;;-0.06;81.73;100560.67;130655;1257;107558;-74
2023/02/03 03:01:16;;;;;;;7.20;3.40;;;;;;;-0.05;81.82;100563.25;130662;1257;107529;-74
2023/02/03 03:04:25;;;;;;;5.60;2.80;;;;;;;-0.04;81.75;100565.28;130512;1257;106508;-73
2023/02/03 03:07:36;;;;;;;6.90;3.40;;;;;;;-0.06;81.92;100560.52;130531;1254;106877;-74
2023/02/03 03:10:45;;;;;;;8.00;3.50;;;;;;;-0.07;81.88;100557.93;130512;1257;108783;-74
2023/02/03 03:13:53;;;;;;;10.30;3.90;;;;;;;-0.05;81.93;100548.40;130600;1258;107482;-74
2023/02/03 03:17:06;;;;;;;9.60;4.30;;;;;;;-0.03;81.68;100541.79;130764;1257;107427;-74
2023/02/03 03:20:19;;;;;;;7.10;3.60;;;;;;;-0.01;81.95;100534.38;130571;1256;107352;-74
2023/02/03 03:23:30;;;;;;;6.40;3.10;;;;;;;0.04;82.02;100535.00;130621;1257;107579;-74
2023/02/03 03:26:41;;;;;;;7.90;3.60;;;;;;;0.04;81.73;100527.83;130569;1257;107484;-74
2023/02/03 03:29:51;;;;;;;5.70;3.00;;;;;;;0.04;81.97;100519.59;130533;1254;107539;-75
2023/02/03 03:32:57;;;;;;;6.10;3.00;;;;;;;0.03;81.55;100513.88;130479;1257;106680;-75
2023/02/03 03:36:12;;;;;;;5.80;3.40;;;;;;;-0.03;81.62;100512.27;130533;1258;107452;-75
2023/02/03 03:39:27;;;;;;;26.60;13.60;;;;;;;-0.07;81.77;100506.54;130632;1257;106368;-74
2023/02/03 03:42:38;;;;;;;16.20;7.30;;;;;;;-0.12;81.83;100503.64;130605;1256;107510;-74
2023/02/03 03:45:48;;;;;;;16.10;5.00;;;;;;;-0.18;81.73;100499.94;130574;1258;107561;-76
2023/02/03 03:48:57;;;;;;;11.20;4.00;;;;;;;-0.24;81.74;100497.25;130571;1259;107372;-73
2023/02/03 03:52:07;;;;;;;9.20;3.60;;;;;;;-0.24;81.94;100496.35;130902;1255;107248;-73
2023/02/03 03:55:15;;;;;;;7.90;3.30;;;;;;;-0.17;81.92;100495.16;130754;1254;107698;-73
2023/02/03 03:58:24;;;;;;;6.50;3.30;;;;;;;-0.09;81.79;100502.25;130821;1257;107519;-73
2023/02/03 04:01:32;;;;;;;7.90;3.80;;;;;;;-0.04;81.68;100499.52;130801;1255;107283;-71
2023/02/03 04:04:39;;;;;;;11.90;5.00;;;;;;;0.01;81.65;100503.14;130804;1257;107474;-73
2023/02/03 04:07:47;;;;;;;8.90;4.70;;;;;;;0.04;81.63;100509.29;130632;1255;107465;-72
2023/02/03 04:10:52;;;;;;;14.60;7.30;;;;;;;0.05;81.50;100516.56;130676;1258;107456;-72
2023/02/03 04:13:58;;;;;;;22.50;11.70;;;;;;;0.05;81.59;100521.33;130775;1256;107504;-71
2023/02/03 04:17:03;;;;;;;16.70;7.30;;;;;;;0.03;81.48;100523.35;130741;1257;107681;-73
2023/02/03 04:20:11;;;;;;;11.50;5.60;;;;;;;-0.01;81.37;100524.92;130688;1257;107586;-74
2023/02/03 04:23:17;;;;;;;9.10;4.90;;;;;;;-0.03;81.49;100517.52;130645;1257;107496;-73
2023/02/03 04:26:22;;;;;;;6.70;3.80;;;;;;;-0.05;81.50;100512.71;130766;1257;108704;-73
2023/02/03 04:29:28;;;;;;;8.50;3.80;;;;;;;-0.08;81.45;100508.67;130786;1254;107365;-73
2023/02/03 04:32:34;;;;;;;11.40;5.10;;;;;;;-0.12;81.45;100502.02;130742;1254;107236;-73
2023/02/03 04:35:39;;;;;;;13.80;5.30;;;;;;;-0.12;81.53;100497.69;130714;1257;107401;-71
2023/02/03 04:38:45;;;;;;;9.90;4.20;;;;;;;-0.14;81.51;100496.06;130550;1257;107616;-71
2023/02/03 04:41:51;;;;;;;6.10;3.10;;;;;;;-0.15;81.42;100494.00;130717;1258;107202;-73
2023/02/03 04:44:56;;;;;;;6.20;3.30;;;;;;;-0.14;81.55;100493.95;130660;1254;107318;-72
2023/02/03 04:48:03;;;;;;;5.50;2.80;;;;;;;-0.10;81.68;100487.25;130557;1257;107485;-73
2023/02/03 04:51:10;;;;;;;6.20;2.60;;;;;;;-0.05;81.45;100488.56;130740;1254;107390;-72
2023/02/03 04:54:15;;;;;;;4.10;2.60;;;;;;;-0.01;81.23;100489.42;130739;1259;109292;-73
2023/02/03 04:57:21;;;;;;;8.00;3.40;;;;;;;0.02;81.30;100489.11;130753;1258;107519;-75
2023/02/03 05:00:28;;;;;;;8.00;4.00;;;;;;;-0.01;81.39;100485.58;130724;1257;105866;-73
2023/02/03 05:03:33;;;;;;;6.10;2.90;;;;;;;-0.02;81.30;100483.17;130589;1259;108683;-73
2023/02/03 05:06:39;;;;;;;5.20;2.80;;;;;;;-0.05;81.18;100476.19;130722;1255;107553;-73
2023/02/03 05:09:44;;;;;;;7.20;3.40;;;;;;;-0.07;81.19;100473.80;130642;1256;108155;-73
2023/02/03 05:12:50;;;;;;;12.30;4.40;;;;;;;-0.08;81.33;100468.11;130503;1258;107369;-72
2023/02/03 05:15:56;;;;;;;13.60;6.40;;;;;;;-0.08;81.33;100462.36;130674;1254;107411;-73
2023/02/03 05:19:01;;;;;;;13.10;5.30;;;;;;;-0.10;81.22;100459.79;130731;1256;107623;-73
2023/02/03 05:22:07;;;;;;;10.50;4.50;;;;;;;-0.12;81.22;100459.21;130691;1261;107556;-73
2023/02/03 05:25:12;;;;;;;11.00;4.40;;;;;;;-0.15;81.19;100458.00;130620;1257;107617;-75
2023/02/03 05:28:18;;;;;;;5.00;2.80;;;;;;;-0.15;81.26;100457.81;130701;1257;107573;-72
2023/02/03 05:31:23;;;;;;;9.60;4.00;;;;;;;-0.13;81.28;100453.34;130743;1256;107537;-72
2023/02/03 05:34:29;;;;;;;10.40;4.30;;;;;;;-0.08;81.29;100446.59;130628;1258;105973;-72
2023/02/03 05:37:35;;;;;;;11.00;4.40;;;;;;;-0.03;81.16;100443.89;130844;1254;107375;-73
2023/02/03 05:44:04;;;;;;;10.60;5.30;;;;;;;0.05;81.19;100429.30;130610;1257;107490;-73
2023/02/03 05:47:09;;;;;;;9.50;5.30;;;;;;;0.04;81.04;100423.42;130540;1256;107638;-72
2023/02/03 05:50:15;;;;;;;8.40;4.40;;;;;;;0.02;80.97;100419.33;130670;1256;106644;-73
2023/02/03 05:53:21;;;;;;;10.50;5.70;;;;;;;-0.01;81.09;100413.51;130521;1258;107711;-74
2023/02/03 05:56:27;;;;;;;11.30;5.70;;;;;;;-0.01;81.10;100408.30;130481;1258;107527;-73
2023/02/03 05:59:32;;;;;;;10.70;4.40;;;;;;;-0.01;81.16;100408.08;130543;1258;107243;-73
2023/02/03 06:02:38;;;;;;;6.90;4.10;;;;;;;-0.01;81.13;100407.75;130576;1258;108285;-73
2023/02/03 06:05:43;;;;;;;10.30;4.80;;;;;;;-0.03;81.17;100404.54;130698;1258;107344;-73
2023/02/03 06:08:51;;;;;;;9.80;4.80;;;;;;;-0.04;81.08;100404.42;130619;1258;107369;-71
2023/02/03 06:11:56;;;;;;;10.70;5.00;;;;;;;-0.05;81.14;100406.06;130699;1259;107515;-73
2023/02/03 06:15:02;;;;;;;11.70;4.70;;;;;;;-0.04;81.15;100406.16;130693;1254;107495;-73
2023/02/03 06:18:08;;;;;;;10.00;4.20;;;;;;;-0.02;81.22;100404.98;130584;1258;107630;-73
2023/02/03 06:21:13;;;;;;;7.90;3.90;;;;;;;0.05;81.06;100395.91;130591;1257;107228;-72
2023/02/03 06:24:19;;;;;;;11.70;4.60;;;;;;;0.12;81.11;100386.05;130698;1256;107469;-73
2023/02/03 06:27:25;;;;;;;8.70;4.70;;;;;;;0.20;81.08;100386.52;130542;1259;106518;-72
2023/02/03 06:30:31;;;;;;;9.10;4.90;;;;;;;0.27;81.10;100382.46;130652;1256;107511;-75
2023/02/03 06:33:36;;;;;;;9.70;4.80;;;;;;;0.29;80.87;100372.89;130662;1259;108660;-73
2023/02/03 06:36:42;;;;;;;9.10;4.80;;;;;;;0.29;80.81;100373.05;130536;1259;107341;-73
2023/02/03 06:39:47;;;;;;;10.60;4.90;;;;;;;0.28;80.89;100366.30;130783;1257;106782;-72
2023/02/03 06:42:53;;;;;;;10.30;5.10;;;;;;;0.28;80.89;100362.12;130687;1256;107515;-73
2023/02/03 06:45:58;;;;;;;11.70;6.00;;;;;;;0.27;80.92;100351.33;130589;1255;107602;-73
2023/02/03 06:49:04;;;;;;;14.90;6.40;;;;;;;0.28;81.07;100348.96;130671;1259;107509;-71
2023/02/03 06:52:09;;;;;;;15.80;7.30;;;;;;;0.30;80.85;100341.72;130765;1272;107379;-72
2023/02/03 06:55:28;;;;;;;14.00;7.40;;;;;;;0.32;81.00;100340.00;130546;1259;106697;-73
2023/02/03 06:58:33;;;;;;;15.30;8.00;;;;;;;0.33;81.05;100335.03;130562;1254;107549;-75
2023/02/03 07:01:39;;;;;;;15.70;8.10;;;;;;;0.35;80.88;100328.11;130527;1259;107498;-73
2023/02/03 07:04:44;;;;;;;17.80;8.70;;;;;;;0.37;81.02;100329.89;130494;1259;109258;-72
2023/02/03 07:07:51;;;;;;;15.60;7.50;;;;;;;0.41;80.88;100325.02;130579;1254;107505;-72
2023/02/03 07:10:57;;;;;;;14.30;7.30;;;;;;;0.46;80.84;100317.73;130652;1256;107357;-73
2023/02/03 07:14:02;;;;;;;14.40;7.70;;;;;;;0.55;80.88;100306.69;130576;1254;107330;-72
2023/02/03 07:17:08;;;;;;;14.10;7.50;;;;;;;0.65;80.89;100299.28;130745;1256;108580;-73
2023/02/03 07:20:14;;;;;;;13.90;6.90;;;;;;;0.73;80.71;100295.85;130837;1259;108101;-72
2023/02/03 07:23:20;;;;;;;12.00;6.60;;;;;;;0.81;80.71;100291.73;130598;1258;107618;-72
2023/02/03 07:26:25;;;;;;;13.20;6.40;;;;;;;0.88;80.65;100289.38;130555;1257;107710;-73
2023/02/03 07:29:31;;;;;;;20.40;8.50;;;;;;;0.93;80.60;100281.17;130550;1256;107369;-73
2023/02/03 07:32:36;;;;;;;14.90;7.30;;;;;;;0.96;80.31;100275.42;130494;1258;107490;-73
2023/02/03 07:35:42;;;;;;;13.30;6.80;;;;;;;0.98;80.60;100274.77;130497;1258;107150;-72
2023/02/03 07:38:47;;;;;;;12.10;7.00;;;;;;;1.03;80.42;100267.96;130574;1258;107537;-73
2023/02/03 07:41:53;;;;;;;17.60;10.30;;;;;;;1.10;80.45;100262.16;130677;1256;107514;-73
2023/02/03 07:45:00;;;;;;;12.20;6.20;;;;;;;1.15;80.31;100248.70;130687;1258;108727;-73
2023/02/03 07:48:06;;;;;;;12.70;6.70;;;;;;;1.16;80.41;100240.57;130528;1253;107382;-73
2023/02/03 07:51:12;;;;;;;11.60;6.20;;;;;;;1.19;80.37;100233.58;130534;1255;107414;-73
2023/02/03 07:54:17;;;;;;;16.50;9.10;;;;;;;1.22;80.30;100226.04;130523;1254;105918;-73
2023/02/03 07:57:23;;;;;;;8.20;5.00;;;;;;;1.23;80.12;100217.73;130622;1258;107134;-73
2023/02/03 08:00:29;;;;;;;9.00;4.30;;;;;;;1.25;80.01;100216.20;130556;1256;107348;-72
2023/02/03 08:03:34;;;;;;;11.70;6.70;;;;;;;1.31;79.99;100209.70;130683;1258;105956;-73
2023/02/03 08:06:40;;;;;;;11.80;5.90;;;;;;;1.41;79.92;100210.66;130610;1254;107978;-72
2023/02/03 08:09:45;;;;;;;12.70;5.50;;;;;;;1.47;79.83;100204.71;130755;1259;105602;-71
2023/02/03 08:12:54;;;;;;;10.80;5.50;;;;;;;1.51;79.67;100200.20;130755;1259;108648;-72
2023/02/03 08:16:00;;;;;;;12.90;6.80;;;;;;;1.55;79.84;100187.84;130652;1256;107540;-72
2023/02/03 08:19:05;;;;;;;14.40;7.90;;;;;;;1.59;79.69;100181.83;130641;1257;107457;-73
2023/02/03 08:22:14;;;;;;;25.90;12.20;;;;;;;1.63;79.94;100185.48;130633;1259;106269;-73
2023/02/03 08:25:20;;;;;;;39.80;14.20;;;;;;;1.68;79.83;100174.95;130520;1254;107411;-74
2023/02/03 08:28:26;;;;;;;106.70;31.30;;;;;;;1.72;79.51;100168.37;130566;1256;109342;-73
2023/02/03 08:31:32;;;;;;;25.40;9.90;;;;;;;1.74;79.58;100158.41;130747;1254;106073;-71
2023/02/03 08:34:37;;;;;;;28.50;10.30;;;;;;;1.79;79.57;100152.55;130741;1256;107633;-73
2023/02/03 08:37:43;;;;;;;20.60;8.70;;;;;;;1.83;79.48;100148.36;130573;1259;106792;-70
2023/02/03 08:40:48;;;;;;;50.60;18.70;;;;;;;1.88;79.49;100140.19;130505;1259;106079;-73
2023/02/03 08:43:54;;;;;;;163.00;47.70;;;;;;;1.92;79.39;100136.36;130690;1258;107554;-72
2023/02/03 08:47:01;;;;;;;37.70;12.60;;;;;;;1.92;79.28;100134.83;130752;1256;108596;-72
2023/02/03 08:50:08;;;;;;;80.60;26.90;;;;;;;1.92;79.38;100126.22;130647;1256;107561;-73
2023/02/03 08:53:14;;;;;;;23.10;10.70;;;;;;;1.97;79.41;100114.13;130538;1258;107258;-73
2023/02/03 08:56:19;;;;;;;8.50;4.50;;;;;;;2.06;79.23;100111.61;130650;1257;121110;-73
2023/02/03 08:59:25;;;;;;;23.20;10.10;;;;;;;2.11;78.54;100109.16;130804;1259;106554;-72
2023/02/03 09:02:31;;;;;;;15.70;6.70;;;;;;;2.20;78.59;100103.00;130751;1256;107368;-72
2023/02/03 09:05:36;;;;;;;11.00;5.70;;;;;;;2.27;78.33;100095.78;130545;1259;107707;-73
2023/02/03 09:08:42;;;;;;;7.90;4.70;;;;;;;2.32;78.39;100088.45;130545;1257;107533;-73
2023/02/03 09:11:48;;;;;;;28.30;12.60;;;;;;;2.39;78.28;100076.95;130661;1259;107508;-73
2023/02/03 09:14:54;;;;;;;35.80;14.40;;;;;;;2.37;77.75;100072.65;130752;1257;107124;-73
2023/02/03 09:17:59;;;;;;;17.60;8.00;;;;;;;2.40;78.15;100064.06;130550;1258;106041;-73
2023/02/03 09:21:10;;;;;;;14.80;6.10;;;;;;;2.45;77.88;100058.27;130607;1264;107228;-72
2023/02/03 09:24:15;;;;;;;10.20;5.10;;;;;;;2.49;77.93;100053.63;130789;1259;106642;-72
2023/02/03 09:27:21;;;;;;;45.20;15.10;;;;;;;2.48;77.63;100045.63;130517;1258;107586;-73
2023/02/03 09:30:27;;;;;;;10.50;5.70;;;;;;;2.45;77.37;100032.80;130660;1259;107506;-72
2023/02/03 09:33:33;;;;;;;34.20;10.70;;;;;;;2.44;77.75;100016.05;130757;1259;107411;-71
2023/02/03 09:36:39;;;;;;;13.30;6.60;;;;;;;2.44;77.69;100007.21;130750;1259;107554;-71
2023/02/03 09:39:44;;;;;;;10.40;5.80;;;;;;;2.42;77.26;100002.83;130723;1258;105708;-73
2023/02/03 09:43:17;;;;;;;10.40;5.40;;;;;;;2.38;77.57;99993.27;130542;1259;107540;-73
2023/02/03 09:46:25;;;;;;;10.20;5.30;;;;;;;2.43;77.65;99979.97;130631;1258;107447;-74
2023/02/03 09:49:38;;;;;;;9.00;5.30;;;;;;;2.40;77.29;99975.23;130742;1254;107988;-71
2023/02/03 09:52:44;;;;;;;11.70;6.00;;;;;;;2.38;77.25;99969.39;130660;1257;107703;-74
2023/02/03 09:55:50;;;;;;;10.40;5.70;;;;;;;2.36;77.25;99962.29;130575;1259;108673;-73
2023/02/03 09:58:56;;;;;;;16.10;8.10;;;;;;;2.38;77.21;99960.25;130614;1254;107376;-73
2023/02/03 10:02:17;;;;;;;11.50;6.30;;;;;;;2.42;77.37;99951.22;130765;1261;107230;-73
2023/02/03 10:05:31;;;;;;;10.60;6.10;;;;;;;2.46;77.24;99938.29;130757;1259;107445;-72
2023/02/03 10:08:52;;;;;;;10.90;6.00;;;;;;;2.47;76.89;99940.30;130711;1259;107443;-71
2023/02/03 10:12:22;;;;;;;10.90;5.20;;;;;;;2.48;77.24;99930.73;130767;1266;107365;-71
2023/02/03 10:15:57;;;;;;;9.80;5.70;;;;;;;2.51;76.78;99918.64;130810;1259;107726;-71
2023/02/03 10:19:09;;;;;;;9.00;5.50;;;;;;;2.49;76.43;99911.21;130751;1256;106567;-71
2023/02/03 10:22:20;;;;;;;9.80;5.00;;;;;;;2.46;76.58;99902.98;130602;1259;107525;-73
2023/02/03 10:25:32;;;;;;;10.20;5.10;;;;;;;2.50;76.45;99892.52;130561;1259;107530;-74
2023/02/03 10:28:42;;;;;;;12.00;5.50;;;;;;;2.55;76.34;99879.02;130531;1257;107502;-73
2023/02/03 10:31:48;;;;;;;9.90;5.80;;;;;;;2.64;76.76;99864.27;130771;1254;107386;-70
2023/02/03 10:34:54;;;;;;;11.50;5.90;;;;;;;2.74;76.22;99851.11;130736;1259;107761;-72
2023/02/03 10:38:00;;;;;;;10.90;6.20;;;;;;;2.77;75.91;99843.17;130564;1271;107273;-73
2023/02/03 10:41:06;;;;;;;12.10;6.40;;;;;;;2.78;76.12;99834.65;130543;1256;107561;-72
2023/02/03 10:44:15;;;;;;;13.40;7.00;;;;;;;2.79;75.70;99831.96;130796;1257;107372;-74
2023/02/03 10:47:27;;;;;;;14.60;7.80;;;;;;;2.78;75.91;99817.79;130779;1257;107482;-73
2023/02/03 10:50:32;;;;;;;13.70;6.70;;;;;;;2.80;75.39;99801.88;130581;1259;107523;-73
2023/02/03 10:53:39;;;;;;;16.90;8.70;;;;;;;2.80;75.33;99791.49;130623;1257;107537;-73
2023/02/03 10:56:45;;;;;;;36.10;17.00;;;;;;;2.80;75.66;99783.77;130649;1259;107557;-73
2023/02/03 10:59:51;;;;;;;14.50;8.00;;;;;;;2.84;75.61;99764.14;130777;1253;107210;-71
2023/02/03 11:03:05;;;;;;;16.40;9.70;;;;;;;2.85;75.47;99746.09;130580;1258;107473;-73
2023/02/03 11:06:14;;;;;;;13.30;7.50;;;;;;;2.83;75.25;99745.38;130755;1256;107461;-73
2023/02/03 11:09:31;;;;;;;16.80;8.20;;;;;;;2.84;75.38;99731.61;130697;1257;107270;-74
2023/02/03 11:12:37;;;;;;;34.50;13.10;;;;;;;2.84;74.96;99722.86;130689;1259;107596;-74
2023/02/03 11:15:53;;;;;;;62.80;20.90;;;;;;;2.83;75.03;99711.31;130671;1259;106679;-73
2023/02/03 11:19:01;;;;;;;33.80;13.30;;;;;;;2.81;75.17;99694.83;130572;1259;107952;-74
2023/02/03 11:22:07;;;;;;;40.80;17.00;;;;;;;2.79;74.87;99681.46;130530;1259;107471;-73
2023/02/03 11:25:22;;;;;;;43.90;19.30;;;;;;;2.77;75.27;99670.33;130533;1255;107399;-74
2023/02/03 11:28:29;;;;;;;17.30;9.10;;;;;;;2.75;75.08;99652.39;130506;1256;107383;-73
2023/02/03 11:31:36;;;;;;;17.80;9.30;;;;;;;2.72;75.50;99647.31;130616;1259;106570;-74
2023/02/03 11:34:52;;;;;;;16.90;10.30;;;;;;;2.73;75.70;99636.55;130596;1256;107254;-72
2023/02/03 11:38:00;;;;;;;14.90;8.60;;;;;;;2.71;75.63;99624.25;130510;1258;107560;-73
2023/02/03 11:41:06;;;;;;;14.60;7.10;;;;;;;2.64;75.84;99614.61;130555;1256;107413;-73
2023/02/03 11:44:20;;;;;;;11.40;6.60;;;;;;;2.57;75.77;99612.48;130743;1259;107514;-71
2023/02/03 11:47:26;;;;;;;13.00;6.60;;;;;;;2.54;76.03;99602.19;130787;1258;107547;-74
2023/02/03 11:50:38;;;;;;;11.10;7.10;;;;;;;2.53;76.39;99595.75;130555;1259;107546;-73
2023/02/03 11:53:54;;;;;;;;;;;;;;;2.51;76.13;99580.12;130552;1259;107521;-74
2023/02/03 11:57:17;;;;;;;10.70;6.90;;;;;;;2.45;76.47;99573.44;130509;1259;107530;-73
2023/02/03 12:00:32;;;;;;;12.20;7.40;;;;;;;2.34;76.56;99567.92;130573;1256;107514;-71
2023/02/03 12:04:03;;;;;;;12.40;7.50;;;;;;;2.25;76.79;99561.05;130773;1267;107398;-72
2023/02/03 12:07:39;;;;;;;14.80;8.90;;;;;;;2.15;76.89;99552.66;130737;1258;108632;-72
2023/02/03 12:11:00;;;;;;;14.30;8.60;;;;;;;2.03;77.10;99545.03;130753;1259;107502;-73
2023/02/03 12:14:27;;;;;;;20.80;12.60;;;;;;;1.94;77.50;99530.54;130743;1257;107379;-74
2023/02/03 12:17:50;;;;;;;16.20;9.40;;;;;;;1.89;77.54;99514.66;130780;1260;107753;-71
2023/02/03 12:21:01;;;;;;;;;;;;;;;1.83;77.71;99494.41;130509;1257;107662;-73
2023/02/03 12:24:15;;;;;;;16.70;9.50;;;;;;;1.78;77.91;99483.39;130716;1257;107625;-73
2023/02/03 12:27:34;;;;;;;17.20;8.30;;;;;;;1.80;78.03;99465.55;130722;1258;107387;-72
2023/02/03 12:30:43;;;;;;;14.80;7.10;;;;;;;1.84;78.38;99451.54;130812;1259;107382;-73
2023/02/03 12:33:54;;;;;;;14.00;8.00;;;;;;;1.92;78.28;99436.76;130751;1259;107453;-72
2023/02/03 12:37:06;;;;;;;11.60;7.40;;;;;;;1.98;78.26;99423.29;130698;1257;107218;-73
2023/02/03 12:40:17;;;;;;;15.20;8.50;;;;;;;2.00;78.16;99408.27;130753;1259;107752;-71
2023/02/03 12:43:36;;;;;;;15.50;8.10;;;;;;;1.97;78.31;99398.12;130750;1257;107383;-71
2023/02/03 12:46:46;;;;;;;13.80;7.80;;;;;;;1.93;78.39;99392.65;130786;1273;107523;-72
2023/02/03 12:49:57;;;;;;;18.10;8.50;;;;;;;1.87;78.42;99380.60;130769;1259;107381;-72
2023/02/03 12:53:09;;;;;;;14.40;8.50;;;;;;;1.79;78.69;99364.21;130717;1259;109364;-71
2023/02/03 12:56:18;;;;;;;13.50;8.20;;;;;;;1.73;79.02;99349.48;130790;1256;108238;-72
2023/02/03 12:59:29;;;;;;;12.80;7.20;;;;;;;1.66;79.08;99339.70;130526;1256;107588;-72
2023/02/03 13:02:47;;;;;;;14.70;8.60;;;;;;;1.59;79.13;99321.27;130571;1269;107239;-71
2023/02/03 13:05:59;;;;;;;15.00;8.20;;;;;;;1.56;79.31;99304.82;130578;1270;107548;-71
2023/02/03 13:09:16;;;;;;;13.20;8.00;;;;;;;1.54;79.46;99291.12;130567;1261;107586;-71
2023/02/03 13:12:28;;;;;;;14.40;8.80;;;;;;;1.56;79.41;99280.30;130569;1260;107387;-71
2023/02/03 13:15:39;;;;;;;13.60;7.50;;;;;;;1.60;79.37;99269.27;130715;1266;107419;-72
2023/02/03 13:18:50;;;;;;;17.40;8.70;;;;;;;1.62;79.55;99253.20;130623;1270;107532;-73
2023/02/03 13:21:55;;;;;;;15.50;8.80;;;;;;;1.58;79.57;99241.93;130575;1263;107394;-71
2023/02/03 13:25:09;;;;;;;17.10;9.30;;;;;;;1.55;79.65;99238.25;130569;1261;107554;-74
2023/02/03 13:28:23;;;;;;;14.70;8.60;;;;;;;1.51;79.85;99223.58;130628;1260;108934;-71
2023/02/03 13:31:44;;;;;;;14.20;9.00;;;;;;;1.45;79.79;99208.23;130566;1266;107453;-71
2023/02/03 13:35:06;;;;;;;17.50;9.70;;;;;;;1.40;80.04;99190.59;130565;1273;107700;-70
2023/02/03 13:38:45;;;;;;;17.60;9.40;;;;;;;1.32;80.42;99182.45;130567;1262;107563;-73
2023/02/03 13:41:54;;;;;;;14.00;8.10;;;;;;;1.33;80.22;99167.83;130535;1260;107381;-73
2023/02/03 13:45:06;;;;;;;14.30;9.10;;;;;;;1.35;80.40;99156.95;130812;1261;107516;-73
2023/02/03 13:48:17;;;;;;;17.70;9.90;;;;;;;1.37;80.31;99150.00;130710;1258;107569;-74
2023/02/03 13:51:28;;;;;;;15.50;9.10;;;;;;;1.39;80.58;99138.48;130660;1259;107523;-74
2023/02/03 13:54:38;;;;;;;16.60;9.20;;;;;;;1.36;80.71;99133.98;130667;1256;107236;-73
2023/02/03 13:57:43;;;;;;;14.00;7.80;;;;;;;1.31;80.59;99116.50;130705;1256;108864;-71
2023/02/03 14:01:22;;;;;;;16.80;9.10;;;;;;;1.28;80.73;99102.34;130698;1261;107274;-71
2023/02/03 14:04:55;;;;;;;20.80;10.50;;;;;;;1.23;81.11;99094.73;130693;1267;110130;-71
2023/02/03 14:08:34;;;;;;;18.30;10.10;;;;;;;1.14;80.99;99085.92;130659;1259;107362;-73
2023/02/03 14:11:46;;;;;;;15.10;7.90;;;;;;;1.17;81.10;99069.55;130650;1258;107199;-73
2023/02/03 14:15:13;;;;;;;15.30;8.10;;;;;;;1.20;81.33;99060.61;130763;1259;107358;-72
2023/02/03 14:18:43;;;;;;;15.70;8.20;;;;;;;1.22;81.23;99058.91;130789;1261;107378;-71
2023/02/03 14:21:52;;;;;;;15.20;8.50;;;;;;;1.26;81.18;99054.73;130752;1260;107498;-71
2023/02/03 14:25:05;;;;;;;17.30;10.10;;;;;;;1.27;81.01;99055.50;130733;1266;107369;-71
2023/02/03 14:28:14;;;;;;;17.60;9.70;;;;;;;1.26;81.34;99050.27;130752;1260;107491;-73